Time;durP1;ratioP1;P1;durP2;ratioP2;P2;SDS_P1;SDS_P2;PMS_P1;PMS_P2;Temp;Humidity;BMP_temperature;BMP_pressure;BME280_temperature;BME280_humidity;BME280_pressure;Samples;Min_cycle;Max_cycle;Signal;HPM_P1;HPM_P2
2022/07/15 00:01:06;;;;;;;9.48;2.25;;;14.60;99.90;;;;;;5051967;28;20131;-62
2022/07/15 00:03:32;;;;;;;9.85;2.38;;;14.60;99.90;;;;;;5051571;28;20033;-62
2022/07/15 00:05:57;;;;;;;11.93;2.63;;;14.70;99.90;;;;;;5052060;28;20382;-63
2022/07/15 00:08:23;;;;;;;7.75;1.95;;;14.60;99.90;;;;;;5034524;28;20041;-63
2022/07/15 00:10:49;;;;;;;7.95;2.40;;;14.60;99.90;;;;;;5051631;28;20385;-63
2022/07/15 00:13:15;;;;;;;9.90;2.22;;;14.60;99.90;;;;;;5052089;28;20116;-63
2022/07/15 00:15:40;;;;;;;8.13;2.40;;;14.60;99.90;;;;;;5051436;28;20478;-63
2022/07/15 00:18:06;;;;;;;7.85;2.20;;;14.60;99.90;;;;;;5050127;28;20048;-63
2022/07/15 00:20:35;;;;;;;8.65;2.17;;;14.50;99.90;;;;;;5062848;28;20081;-63
2022/07/15 00:23:05;;;;;;;9.73;2.20;;;14.60;99.90;;;;;;5051606;28;20371;-63
2022/07/15 00:25:31;;;;;;;8.63;2.00;;;14.60;99.90;;;;;;5050242;28;20048;-63
2022/07/15 00:28:01;;;;;;;8.45;2.13;;;14.50;99.90;;;;;;5050154;28;20045;-63
2022/07/15 00:30:32;;;;;;;9.50;1.92;;;14.50;99.90;;;;;;5051007;28;20049;-63
2022/07/15 00:32:58;;;;;;;5.72;1.40;;;14.50;99.90;;;;;;5050468;28;20114;-63
2022/07/15 00:35:24;;;;;;;9.57;1.75;;;14.40;99.90;;;;;;5049744;28;20393;-63
2022/07/15 00:37:50;;;;;;;7.30;1.70;;;14.40;99.90;;;;;;5050518;28;20048;-63
2022/07/15 00:40:15;;;;;;;7.70;2.03;;;14.40;99.90;;;;;;5049500;28;20363;-63
2022/07/15 00:42:43;;;;;;;6.30;2.00;;;14.30;99.90;;;;;;5052030;28;20075;-63
2022/07/15 00:45:20;;;;;;;7.43;1.80;;;14.30;99.90;;;;;;5060427;28;20033;-63
2022/07/15 00:47:52;;;;;;;8.82;2.38;;;14.30;99.90;;;;;;5051810;28;20037;-63
2022/07/15 00:50:19;;;;;;;8.52;2.95;;;14.20;99.90;;;;;;5050886;28;20033;-62
2022/07/15 00:52:56;;;;;;;6.40;1.63;;;14.40;99.90;;;;;;5049587;28;20183;-63
2022/07/15 00:55:23;;;;;;;9.77;2.65;;;14.20;99.90;;;;;;5034051;28;20080;-63
2022/07/15 00:57:51;;;;;;;6.22;1.75;;;14.20;99.90;;;;;;5050528;28;20048;-62
2022/07/15 01:00:17;;;;;;;4.93;1.83;;;14.10;99.90;;;;;;5049394;28;20494;-62
2022/07/15 01:02:49;;;;;;;8.50;2.10;;;14.10;99.90;;;;;;5051669;28;20052;-63
2022/07/15 01:05:18;;;;;;;8.00;2.08;;;14.20;99.90;;;;;;5051636;28;20041;-62
2022/07/15 01:07:44;;;;;;;7.90;1.88;;;14.00;99.90;;;;;;5055579;28;20044;-62
2022/07/15 01:10:10;;;;;;;9.75;1.90;;;14.40;99.90;;;;;;5051108;28;20060;-62
2022/07/15 01:12:37;;;;;;;8.88;1.48;;;14.00;99.90;;;;;;5051993;28;20041;-62
2022/07/15 01:15:07;;;;;;;4.60;1.45;;;14.00;99.90;;;;;;5050564;28;20049;-63
2022/07/15 01:17:33;;;;;;;6.80;1.83;;;14.00;99.90;;;;;;5050493;28;20166;-62
2022/07/15 01:19:58;;;;;;;6.25;1.67;;;14.00;99.90;;;;;;5049723;28;20398;-63
2022/07/15 01:22:24;;;;;;;6.38;1.33;;;13.90;99.90;;;;;;5050845;28;20087;-62
2022/07/15 01:24:52;;;;;;;5.47;1.20;;;14.00;99.90;;;;;;5050881;28;20052;-62
2022/07/15 01:27:18;;;;;;;6.55;1.17;;;13.90;99.90;;;;;;5050498;28;20044;-62
2022/07/15 01:29:43;;;;;;;5.18;1.58;;;14.00;99.90;;;;;;5049517;28;20397;-62
2022/07/15 01:32:09;;;;;;;8.07;1.38;;;14.00;99.90;;;;;;5061749;28;20051;-62
2022/07/15 01:34:34;;;;;;;3.60;1.13;;;13.90;99.90;;;;;;5053200;28;20037;-62
2022/07/15 01:37:00;;;;;;;6.47;1.40;;;14.00;99.90;;;;;;5053889;28;20041;-62
2022/07/15 01:39:26;;;;;;;5.40;1.10;;;14.00;99.90;;;;;;5053538;28;20048;-62
2022/07/15 01:41:51;;;;;;;3.83;1.10;;;13.90;99.90;;;;;;5054148;28;20049;-62
2022/07/15 01:44:17;;;;;;;4.97;1.15;;;13.90;99.90;;;;;;5053617;28;20037;-62
2022/07/15 01:46:43;;;;;;;3.17;1.00;;;13.80;99.90;;;;;;5053621;28;20049;-62
2022/07/15 01:49:26;;;;;;;4.78;1.02;;;13.80;99.90;;;;;;5052588;28;20041;-62
2022/07/15 01:51:57;;;;;;;2.78;0.90;;;13.80;99.90;;;;;;5053452;28;20041;-62
2022/07/15 01:54:25;;;;;;;4.05;1.27;;;14.00;99.90;;;;;;5054079;28;20029;-62
2022/07/15 01:56:51;;;;;;;7.30;0.90;;;14.10;99.90;;;;;;5062641;28;20242;-63
2022/07/15 01:59:17;;;;;;;2.95;0.85;;;;;;;;;;5054626;28;20521;-62
2022/07/15 02:01:44;;;;;;;4.28;0.90;;;;;;;;;;5053107;28;20486;-62
2022/07/15 02:04:12;;;;;;;4.00;1.02;;;13.60;99.90;;;;;;5053600;28;20041;-62
2022/07/15 02:06:37;;;;;;;5.35;1.13;;;13.60;99.90;;;;;;5054483;28;20095;-62
2022/07/15 02:09:03;;;;;;;8.48;1.10;;;13.60;99.90;;;;;;5054036;28;20045;-62
2022/07/15 02:11:29;;;;;;;3.08;0.93;;;13.50;99.90;;;;;;5052396;28;20045;-62
2022/07/15 02:13:58;;;;;;;3.30;0.95;;;13.40;99.90;;;;;;5053970;28;20052;-62
2022/07/15 02:16:24;;;;;;;5.07;0.85;;;13.40;99.90;;;;;;5036924;28;20186;-62
2022/07/15 02:18:50;;;;;;;5.03;1.33;;;13.30;99.90;;;;;;5052950;28;20547;-63
2022/07/15 02:21:16;;;;;;;3.72;0.70;;;13.30;99.90;;;;;;5062910;28;20044;-62
2022/07/15 02:23:41;;;;;;;2.47;0.90;;;13.20;99.90;;;;;;5053790;28;20057;-62
2022/07/15 02:26:07;;;;;;;2.28;0.80;;;13.10;99.90;;;;;;5052138;28;20120;-62
2022/07/15 02:28:33;;;;;;;2.65;1.05;;;13.10;99.90;;;;;;5052999;28;20449;-62
2022/07/15 02:30:59;;;;;;;4.63;1.33;;;13.10;99.90;;;;;;5051904;28;20120;-62
2022/07/15 02:33:24;;;;;;;6.88;1.05;;;13.00;99.90;;;;;;5052905;28;20099;-62
2022/07/15 02:35:50;;;;;;;3.88;0.80;;;13.00;99.90;;;;;;5035092;28;20045;-62
2022/07/15 02:38:17;;;;;;;2.50;0.70;;;13.00;99.90;;;;;;5051845;28;20049;-62
2022/07/15 02:40:43;;;;;;;3.03;0.75;;;12.90;99.90;;;;;;5053956;28;20049;-62
2022/07/15 02:43:09;;;;;;;2.72;0.70;;;12.80;99.90;;;;;;5052274;28;20159;-62
2022/07/15 02:45:37;;;;;;;8.25;0.93;;;12.80;99.90;;;;;;5052872;28;20120;-62
2022/07/15 02:48:03;;;;;;;2.47;0.52;;;12.80;99.90;;;;;;5053087;28;20290;-62
2022/07/15 02:50:29;;;;;;;2.80;0.90;;;12.80;99.90;;;;;;5052530;28;20051;-62
2022/07/15 02:52:55;;;;;;;3.28;1.10;;;12.80;99.90;;;;;;5051359;28;20045;-62
2022/07/15 02:55:21;;;;;;;4.60;1.02;;;12.80;99.90;;;;;;5052970;28;20485;-62
2022/07/15 02:57:46;;;;;;;7.50;1.48;;;12.60;99.90;;;;;;5052301;28;20072;-62
2022/07/15 03:00:17;;;;;;;1.58;0.60;;;12.80;99.90;;;;;;5052422;28;20048;-62
2022/07/15 03:02:43;;;;;;;4.50;0.98;;;12.80;99.90;;;;;;5035473;28;20048;-62
2022/07/15 03:05:11;;;;;;;2.33;0.60;;;12.80;99.90;;;;;;5052139;28;20043;-62
2022/07/15 03:07:38;;;;;;;5.72;1.10;;;12.80;99.90;;;;;;5052911;28;20041;-62
2022/07/15 03:10:05;;;;;;;2.05;0.82;;;12.80;99.90;;;;;;5052818;28;20049;-62
2022/07/15 03:12:31;;;;;;;2.85;0.70;;;12.80;99.90;;;;;;5053682;28;20052;-62
2022/07/15 03:14:57;;;;;;;3.67;1.10;;;12.80;99.90;;;;;;5050960;28;20032;-62
2022/07/15 03:17:23;;;;;;;3.08;0.88;;;12.80;99.90;;;;;;5053275;28;20445;-62
2022/07/15 03:19:48;;;;;;;4.88;1.35;;;12.80;99.90;;;;;;5053000;28;20045;-62
2022/07/15 03:22:14;;;;;;;2.30;0.70;;;12.80;99.90;;;;;;5050980;28;20045;-62
2022/07/15 03:24:40;;;;;;;4.15;1.00;;;12.80;99.90;;;;;;5052970;28;20079;-62
2022/07/15 03:27:06;;;;;;;2.75;0.93;;;13.00;99.90;;;;;;5050818;28;20029;-62
2022/07/15 03:29:31;;;;;;;6.53;1.42;;;12.90;99.90;;;;;;5052068;28;20041;-62
2022/07/15 03:31:57;;;;;;;2.63;0.80;;;12.90;99.90;;;;;;5052485;28;20044;-62
2022/07/15 03:34:26;;;;;;;3.50;0.90;;;12.80;99.90;;;;;;5051026;28;20484;-62
2022/07/15 03:36:53;;;;;;;3.22;0.80;;;12.80;99.90;;;;;;5034854;28;20038;-62
2022/07/15 03:39:18;;;;;;;2.47;0.90;;;12.80;99.90;;;;;;5052866;28;20478;-62
2022/07/15 03:41:45;;;;;;;4.90;1.13;;;12.80;99.90;;;;;;5050779;28;20045;-62
2022/07/15 03:44:10;;;;;;;4.15;1.08;;;12.80;99.90;;;;;;5052613;28;20520;-62
2022/07/15 03:46:36;;;;;;;2.95;0.73;;;12.80;99.90;;;;;;5051632;28;20099;-62
2022/07/15 03:49:02;;;;;;;3.33;0.85;;;12.90;99.90;;;;;;5051688;28;20072;-62
2022/07/15 03:51:31;;;;;;;2.92;0.68;;;12.90;99.90;;;;;;5052875;28;20044;-62
2022/07/15 03:54:02;;;;;;;3.53;0.77;;;12.90;99.90;;;;;;5051092;28;20106;-62
2022/07/15 03:56:28;;;;;;;3.75;0.90;;;13.00;99.90;;;;;;5051300;28;20079;-62
2022/07/15 03:58:54;;;;;;;3.28;0.98;;;13.00;99.90;;;;;;5051006;28;20064;-62
2022/07/15 04:01:21;;;;;;;3.88;1.00;;;13.00;99.90;;;;;;5052800;28;20095;-62
2022/07/15 04:03:48;;;;;;;7.50;1.25;;;13.00;99.90;;;;;;5051566;28;20029;-62
2022/07/15 04:06:15;;;;;;;3.92;0.75;;;13.00;99.90;;;;;;5052459;28;20371;-62
2022/07/15 04:08:41;;;;;;;5.05;1.02;;;13.10;99.90;;;;;;5051344;28;20128;-62
2022/07/15 04:11:07;;;;;;;2.50;0.85;;;13.00;99.90;;;;;;5050104;28;20052;-62
2022/07/15 04:13:32;;;;;;;3.50;0.80;;;13.00;99.90;;;;;;5051036;28;20045;-62
2022/07/15 04:15:58;;;;;;;3.05;0.60;;;13.00;99.90;;;;;;5034076;28;20037;-62
2022/07/15 04:18:24;;;;;;;5.35;0.80;;;12.90;99.90;;;;;;5051643;28;20041;-62
2022/07/15 04:20:49;;;;;;;3.33;0.98;;;13.10;99.90;;;;;;5050818;28;20079;-62
2022/07/15 04:23:15;;;;;;;5.35;0.98;;;13.00;99.90;;;;;;5051856;28;20081;-62
2022/07/15 04:25:41;;;;;;;3.80;1.08;;;13.00;99.90;;;;;;5050697;28;20490;-62
2022/07/15 04:28:07;;;;;;;3.97;1.10;;;13.00;99.90;;;;;;5050573;28;20167;-62
2022/07/15 04:30:33;;;;;;;1.77;0.70;;;13.10;99.90;;;;;;5051418;28;20127;-62
2022/07/15 04:32:59;;;;;;;3.25;1.20;;;13.10;99.90;;;;;;5033748;28;20049;-62
2022/07/15 04:35:25;;;;;;;2.15;0.85;;;13.20;99.90;;;;;;5052383;28;20041;-62
2022/07/15 04:37:50;;;;;;;3.70;0.85;;;13.30;99.90;;;;;;5049810;28;20048;-62
2022/07/15 04:40:17;;;;;;;3.38;0.70;;;13.40;99.90;;;;;;5051884;28;20162;-63
2022/07/15 04:42:43;;;;;;;3.08;0.90;;;13.50;99.90;;;;;;5051726;28;20033;-63
2022/07/15 04:45:09;;;;;;;3.08;1.02;;;13.70;99.90;;;;;;5051238;28;20044;-63
2022/07/15 04:47:35;;;;;;;4.13;0.95;;;14.00;99.90;;;;;;5051895;28;20075;-63
2022/07/15 04:52:46;;;;;;;4.65;0.80;;;14.10;99.90;;;;;;5050964;28;20145;-63
2022/07/15 04:55:13;;;;;;;3.83;1.15;;;13.90;99.90;;;;;;5050402;28;20049;-62
2022/07/15 04:57:38;;;;;;;3.72;0.82;;;14.50;99.90;;;;;;5052208;28;20041;-62
2022/07/15 05:00:05;;;;;;;1.95;0.70;;;14.00;99.90;;;;;;5050784;28;20205;-63
2022/07/15 05:02:31;;;;;;;6.25;1.30;;;14.00;99.90;;;;;;5050970;28;20040;-63
2022/07/15 05:04:58;;;;;;;3.60;0.90;;;14.10;99.90;;;;;;5051320;28;20371;-63
2022/07/15 05:07:24;;;;;;;4.78;1.38;;;14.50;99.90;;;;;;5035227;28;20116;-63
2022/07/15 05:09:50;;;;;;;4.45;1.00;;;14.00;99.90;;;;;;5054478;28;20116;-62
2022/07/15 05:12:15;;;;;;;5.32;1.25;;;14.20;99.90;;;;;;5055688;28;20037;-63
2022/07/15 05:14:41;;;;;;;3.28;0.77;;;14.10;99.90;;;;;;5055220;28;20041;-62
2022/07/15 05:17:08;;;;;;;3.17;1.00;;;14.20;99.90;;;;;;5055035;28;20044;-63
2022/07/15 05:19:34;;;;;;;3.15;1.00;;;14.10;99.90;;;;;;5053890;28;20036;-63
2022/07/15 05:21:59;;;;;;;4.13;1.02;;;14.20;99.90;;;;;;5053936;28;20037;-63
2022/07/15 05:24:25;;;;;;;2.92;0.70;;;14.30;99.90;;;;;;5055398;28;20429;-63
2022/07/15 05:26:51;;;;;;;2.92;0.75;;;14.30;99.90;;;;;;5054732;28;20382;-62
2022/07/15 05:29:16;;;;;;;3.13;0.90;;;14.40;99.90;;;;;;5055235;28;20079;-63
2022/07/15 05:31:42;;;;;;;2.33;0.82;;;14.40;99.90;;;;;;5055385;28;20045;-63
2022/07/15 05:34:09;;;;;;;6.85;1.65;;;14.50;99.90;;;;;;5054564;28;20029;-62
2022/07/15 05:36:37;;;;;;;5.57;1.10;;;;;;;;;;5055397;28;20045;-63
2022/07/15 05:39:03;;;;;;;4.32;1.30;;;;;;;;;;5054630;28;20082;-63
2022/07/15 05:41:31;;;;;;;4.03;1.17;;;14.70;99.90;;;;;;5054621;28;20041;-62
2022/07/15 05:43:57;;;;;;;4.53;1.30;;;14.80;99.90;;;;;;5053528;28;20116;-62
2022/07/15 05:46:23;;;;;;;4.43;1.02;;;14.90;99.90;;;;;;5053806;28;20464;-62
2022/07/15 05:48:49;;;;;;;2.33;0.70;;;15.00;99.90;;;;;;5036248;28;20043;-62
2022/07/15 05:51:15;;;;;;;7.15;1.05;;;15.20;99.90;;;;;;5054804;28;20048;-63
2022/07/15 05:53:41;;;;;;;1.67;0.60;;;15.20;99.90;;;;;;5037398;28;20474;-62
2022/07/15 05:56:07;;;;;;;5.10;1.08;;;15.30;99.90;;;;;;5053818;28;20045;-62
2022/07/15 05:58:33;;;;;;;3.65;0.82;;;15.40;99.90;;;;;;5054991;28;20083;-62
2022/07/15 06:00:59;;;;;;;2.95;0.68;;;15.40;99.90;;;;;;5054273;28;20076;-62
2022/07/15 06:03:24;;;;;;;4.13;1.25;;;15.50;99.90;;;;;;5053002;28;20068;-62
2022/07/15 06:05:50;;;;;;;3.92;0.77;;;15.60;99.90;;;;;;5054562;28;20041;-63
2022/07/15 06:08:16;;;;;;;5.05;1.02;;;15.70;99.90;;;;;;5054296;28;20037;-62
2022/07/15 06:10:42;;;;;;;6.88;1.23;;;15.80;99.90;;;;;;5054200;28;20032;-62
2022/07/15 06:13:08;;;;;;;3.03;1.00;;;;;;;;;;5053453;28;20436;-63
2022/07/15 06:15:34;;;;;;;3.95;1.02;;;16.00;99.90;;;;;;5053431;28;20084;-63
2022/07/15 06:18:03;;;;;;;6.88;1.10;;;;;;;;;;5051805;28;20083;-62
2022/07/15 06:20:29;;;;;;;4.25;1.33;;;;;;;;;;5053999;28;20075;-63
2022/07/15 06:22:57;;;;;;;6.18;0.85;;;;;;;;;;5052979;28;20037;-63
2022/07/15 06:25:23;;;;;;;2.92;0.63;;;;;;;;;;5054660;28;20095;-63
2022/07/15 06:27:49;;;;;;;3.63;1.00;;;;;;;;;;5052784;28;20043;-63
2022/07/15 06:30:16;;;;;;;3.78;0.82;;;;;;;;;;5053229;28;20079;-62
2022/07/15 06:32:42;;;;;;;3.50;0.70;;;;;;;;;;5053144;28;20502;-63
2022/07/15 06:35:08;;;;;;;3.75;0.95;;;;;;;;;;5052688;28;20441;-62
2022/07/15 06:37:34;;;;;;;8.23;0.93;;;;;;;;;;5052295;28;20120;-62
2022/07/15 06:40:00;;;;;;;3.85;1.05;;;;;;;;;;5052278;28;20052;-62
2022/07/15 06:42:26;;;;;;;4.32;0.85;;;;;;;;;;5036134;28;20119;-62
2022/07/15 06:44:52;;;;;;;2.95;0.70;;;;;;;;;;5051789;28;20044;-63
2022/07/15 06:47:18;;;;;;;3.28;0.90;;;;;;;;;;5054180;28;20037;-62
2022/07/15 06:49:44;;;;;;;4.20;0.90;;;;;;;;;;5052750;28;20064;-62
2022/07/15 06:52:10;;;;;;;4.55;0.73;;;;;;;;;;5052794;28;20033;-62
2022/07/15 06:54:36;;;;;;;4.88;0.90;;;;;;;;;;5053764;28;20029;-62
2022/07/15 06:57:02;;;;;;;2.03;0.65;;;;;;;;;;5063510;28;20036;-62
2022/07/15 06:59:28;;;;;;;4.72;0.82;;;;;;;;;;5036133;28;20390;-63
2022/07/15 07:01:56;;;;;;;4.20;0.93;;;;;;;;;;5058810;28;20265;-62
2022/07/15 07:04:22;;;;;;;4.00;1.20;;;;;;;;;;5073551;28;20045;-62
2022/07/15 07:06:49;;;;;;;6.93;1.15;;;;;;;;;;5055060;28;20081;-63
2022/07/15 07:09:15;;;;;;;2.58;0.40;;;;;;;;;;5057727;28;20067;-62
2022/07/15 07:11:41;;;;;;;4.57;0.73;;;;;;;;;;5046424;28;20068;-63
2022/07/15 07:14:07;;;;;;;2.33;0.50;;;;;;;;;;5049995;28;20056;-64
2022/07/15 07:16:34;;;;;;;3.58;0.70;;;;;;;;;;5032860;28;20045;-63
2022/07/15 07:19:00;;;;;;;3.30;0.90;;;;;;;;;;5049861;28;20064;-63
2022/07/15 07:21:26;;;;;;;3.25;0.60;;;;;;;;;;5048704;28;20053;-63
2022/07/15 07:23:52;;;;;;;1.77;0.60;;;;;;;;;;5061400;28;20052;-63
2022/07/15 07:26:19;;;;;;;5.43;0.90;;;;;;;;;;5070072;28;20048;-62
2022/07/15 07:28:45;;;;;;;4.50;0.70;;;;;;;;;;5067122;28;20052;-62
2022/07/15 07:31:13;;;;;;;5.80;0.82;;;;;;;;;;5052253;28;20099;-63
2022/07/15 07:33:39;;;;;;;3.25;0.57;;;;;;;;;;5061918;28;20370;-64
2022/07/15 07:36:05;;;;;;;3.30;0.68;;;;;;;;;;5069131;28;20056;-62
2022/07/15 07:38:32;;;;;;;4.05;0.82;;;;;;;;;;5068976;28;20048;-62
2022/07/15 07:40:58;;;;;;;2.10;0.55;;;;;;;;;;5060064;28;20095;-62
2022/07/15 07:43:24;;;;;;;2.72;0.60;;;;;;;;;;5050614;28;20036;-63
2022/07/15 07:45:50;;;;;;;2.40;0.90;;;;;;;;;;5051678;28;20116;-63
2022/07/15 07:48:17;;;;;;;1.67;0.47;;;;;;;;;;5049412;28;20094;-63
2022/07/15 07:50:43;;;;;;;2.25;0.70;;;;;;;;;;5049124;28;20098;-62
2022/07/15 07:53:10;;;;;;;1.45;0.57;;;;;;;;;;5032713;28;20056;-63
2022/07/15 07:55:36;;;;;;;2.92;0.60;;;;;;;;;;5061316;28;20123;-63
2022/07/15 08:27:19;;;;;;;2.42;0.60;;;18.90;99.90;;;;;;5049628;28;20099;-63
2022/07/15 08:29:46;;;;;;;1.75;0.50;;;18.70;99.90;;;;;;5049264;28;20156;-63
2022/07/15 08:32:12;;;;;;;3.25;0.80;;;18.50;99.90;;;;;;5049846;28;20098;-62
2022/07/15 08:34:40;;;;;;;0.95;0.35;;;18.30;99.90;;;;;;5051917;28;20041;-63
2022/07/15 08:37:06;;;;;;;1.75;0.63;;;18.30;99.90;;;;;;5067851;28;20094;-62
2022/07/15 08:39:32;;;;;;;1.55;0.57;;;18.00;99.90;;;;;;5065397;28;20037;-63
2022/07/15 08:41:57;;;;;;;2.83;0.50;;;17.90;99.90;;;;;;5068177;28;20042;-63
2022/07/15 08:44:23;;;;;;;3.70;0.63;;;17.90;99.90;;;;;;5062172;28;20052;-62
2022/07/15 08:46:49;;;;;;;3.40;0.65;;;17.80;99.90;;;;;;5075234;28;20033;-63
2022/07/15 08:49:17;;;;;;;6.75;0.98;;;17.80;99.90;;;;;;5054967;28;20528;-63
2022/07/15 08:51:44;;;;;;;2.45;0.60;;;17.70;99.90;;;;;;5071263;28;20056;-64
2022/07/15 08:54:14;;;;;;;3.63;0.73;;;17.80;99.90;;;;;;5072739;28;20513;-63
2022/07/15 08:56:42;;;;;;;1.80;0.60;;;17.70;99.90;;;;;;5045026;28;20139;-62
2022/07/15 08:59:08;;;;;;;2.33;0.75;;;17.80;99.90;;;;;;5071852;28;20064;-63
2022/07/15 09:01:42;;;;;;;2.83;0.60;;;17.90;99.90;;;;;;5074564;28;20720;-63
2022/07/15 09:04:08;;;;;;;1.20;0.50;;;17.70;99.90;;;;;;5057163;28;20466;-62
2022/07/15 09:06:41;;;;;;;7.10;0.93;;;17.70;99.90;;;;;;5071805;28;20036;-62
2022/07/15 09:09:26;;;;;;;2.80;0.60;;;17.80;99.90;;;;;;5074419;28;20045;-63
2022/07/15 09:11:53;;;;;;;1.27;0.60;;;17.90;99.90;;;;;;5062725;28;20040;-63
2022/07/15 09:14:20;;;;;;;1.80;0.70;;;17.80;99.90;;;;;;5059364;28;20406;-63
2022/07/15 09:16:45;;;;;;;4.00;0.90;;;18.10;99.90;;;;;;5069678;28;20040;-62
2022/07/15 09:19:11;;;;;;;3.72;0.82;;;18.10;99.90;;;;;;5072952;28;20055;-62
2022/07/15 09:21:42;;;;;;;2.08;0.75;;;18.40;99.90;;;;;;5074449;28;20044;-63
2022/07/15 09:24:18;;;;;;;3.55;0.55;;;18.60;99.90;;;;;;5056521;28;20498;-62
2022/07/15 09:26:44;;;;;;;2.65;0.50;;;18.60;99.90;;;;;;5061243;28;20556;-62
2022/07/15 09:34:59;;;;;;;2.13;0.57;;;18.50;99.90;;;;;;5056019;28;20049;-63
2022/07/15 09:37:25;;;;;;;2.72;0.75;;;18.60;99.90;;;;;;5058228;28;20041;-63
2022/07/15 09:39:58;;;;;;;2.22;0.40;;;;;;;;;;5066227;28;20102;-63
2022/07/15 09:42:24;;;;;;;2.75;0.60;;;;;;;;;;5077169;28;20098;-63
2022/07/15 09:44:51;;;;;;;3.55;1.10;;;;;;;;;;5068044;28;20090;-63
2022/07/15 09:47:19;;;;;;;3.38;0.60;;;;;;;;;;5069100;28;20075;-65
2022/07/15 09:49:45;;;;;;;4.22;0.50;;;;;;;;;;5078484;28;20094;-63
2022/07/15 09:52:14;;;;;;;1.65;0.47;;;;;;;;;;5068462;28;20119;-65
2022/07/15 09:54:40;;;;;;;2.17;0.50;;;;;;;;;;5060305;28;20112;-64
2022/07/15 09:57:07;;;;;;;1.67;0.60;;;;;;;;;;5072836;28;20071;-63
2022/07/15 09:59:34;;;;;;;1.77;0.50;;;;;;;;;;5073754;28;20041;-63
2022/07/15 10:02:00;;;;;;;2.83;0.50;;;19.10;99.90;;;;;;5073218;28;20044;-63
2022/07/15 10:04:29;;;;;;;2.25;0.60;;;18.90;99.10;;;;;;5073803;28;20040;-63
2022/07/15 10:06:56;;;;;;;1.90;0.60;;;18.60;99.90;;;;;;5073258;28;20044;-63
2022/07/15 10:09:28;;;;;;;3.10;0.60;;;19.00;99.90;;;;;;5074053;28;20474;-63
2022/07/15 10:12:02;;;;;;;1.38;0.50;;;18.90;99.90;;;;;;5074008;28;20048;-63
2022/07/15 10:15:14;;;;;;;1.15;0.50;;;19.10;99.90;;;;;;5074936;28;20060;-63
2022/07/15 10:17:46;;;;;;;3.47;0.73;;;;;;;;;;5073525;28;20169;-63
2022/07/15 10:20:18;;;;;;;0.77;0.43;;;;;;;;;;5074276;28;20397;-63
2022/07/15 10:22:57;;;;;;;0.75;0.45;;;;;;;;;;5073644;28;20049;-64
2022/07/15 10:25:28;;;;;;;1.65;0.57;;;19.90;99.40;;;;;;5074438;28;20059;-63
2022/07/15 10:28:14;;;;;;;1.45;0.73;;;20.10;99.90;;;;;;5072719;28;20055;-63
2022/07/15 10:30:40;;;;;;;2.78;0.70;;;19.20;99.90;;;;;;5073599;28;20043;-64
2022/07/15 10:33:06;;;;;;;3.08;0.80;;;19.40;99.90;;;;;;5055941;28;20485;-63
2022/07/15 10:35:43;;;;;;;3.13;1.00;;;19.30;99.90;;;;;;5072911;28;20119;-63
2022/07/15 10:38:33;;;;;;;2.58;0.70;;;19.70;99.90;;;;;;5073275;28;20123;-63
2022/07/15 10:41:03;;;;;;;2.03;0.55;;;19.50;99.90;;;;;;5073766;28;20032;-63
2022/07/15 10:43:51;;;;;;;3.28;0.80;;;19.30;99.90;;;;;;5073537;28;20055;-63
2022/07/15 10:46:17;;;;;;;3.53;1.08;;;19.30;99.90;;;;;;5074123;28;20036;-63
2022/07/15 10:48:46;;;;;;;4.63;0.95;;;19.30;99.90;;;;;;5072612;28;20049;-63
2022/07/15 10:51:30;;;;;;;1.55;0.65;;;19.50;99.90;;;;;;5072880;28;20036;-64
2022/07/15 10:53:57;;;;;;;3.40;0.80;;;19.40;99.90;;;;;;5072205;28;20048;-63
2022/07/15 10:56:31;;;;;;;4.20;0.90;;;19.50;99.90;;;;;;5072824;28;20052;-63
2022/07/15 10:59:09;;;;;;;;;;;19.50;99.90;;;;;;5054941;28;20044;-63
2022/07/15 11:01:36;;;;;;;2.65;0.63;;;19.50;99.90;;;;;;5072375;28;20015;-63
2022/07/15 11:04:18;;;;;;;3.78;1.00;;;19.40;99.90;;;;;;5071889;28;20504;-63
2022/07/15 11:07:02;;;;;;;3.25;0.80;;;19.50;99.90;;;;;;5055513;28;20033;-63
2022/07/15 11:09:51;;;;;;;4.00;0.95;;;19.50;99.90;;;;;;5073713;28;20044;-63
2022/07/15 11:12:28;;;;;;;5.93;0.70;;;19.40;99.90;;;;;;5071557;28;20040;-63
2022/07/15 11:14:56;;;;;;;4.72;0.90;;;19.20;99.90;;;;;;5055278;28;20051;-63
2022/07/15 11:17:38;;;;;;;2.08;0.77;;;19.10;99.90;;;;;;5073667;28;20079;-63
2022/07/15 11:20:08;;;;;;;4.90;1.00;;;19.00;99.90;;;;;;5070831;28;20052;-63
2022/07/15 11:22:36;;;;;;;5.05;1.10;;;19.00;99.90;;;;;;5072301;28;20087;-63
2022/07/15 11:25:03;;;;;;;3.80;0.80;;;19.00;99.90;;;;;;5071540;28;20119;-63
2022/07/15 11:27:30;;;;;;;2.03;0.63;;;19.00;99.90;;;;;;5072694;28;20182;-63
2022/07/15 11:30:01;;;;;;;3.28;0.85;;;19.00;99.90;;;;;;5071430;28;20045;-63
2022/07/15 11:32:27;;;;;;;2.22;1.10;;;19.00;99.90;;;;;;5071090;28;20044;-63
2022/07/15 11:34:55;;;;;;;2.58;1.00;;;19.10;99.90;;;;;;5072372;28;20032;-63
2022/07/15 11:37:25;;;;;;;4.05;1.00;;;19.20;99.90;;;;;;5073142;28;20033;-64
2022/07/15 11:44:29;;;;;;;4.45;1.38;;;19.50;99.90;;;;;;5072054;28;20499;-63
2022/07/15 11:45:41;;;;;;;3.83;1.00;;;19.40;99.90;;;;;;5072985;28;20041;-63
2022/07/15 11:48:07;;;;;;;4.47;1.17;;;19.30;99.90;;;;;;5070130;28;20044;-63
2022/07/15 11:50:37;;;;;;;3.10;1.00;;;19.20;99.90;;;;;;5071521;28;20397;-63
2022/07/15 11:53:15;;;;;;;4.57;1.10;;;19.20;99.90;;;;;;5072384;28;20036;-63
2022/07/15 11:55:55;;;;;;;4.78;1.40;;;19.10;99.90;;;;;;5070820;28;20064;-63
2022/07/15 11:58:31;;;;;;;3.38;0.90;;;18.90;99.90;;;;;;5071890;28;20500;-63
2022/07/15 12:00:59;;;;;;;5.30;1.98;;;18.80;99.90;;;;;;5071299;28;20036;-63
2022/07/15 12:03:39;;;;;;;4.40;1.10;;;18.70;99.90;;;;;;5072552;28;20071;-63
2022/07/15 12:06:25;;;;;;;2.70;1.00;;;18.70;99.90;;;;;;5072120;28;20119;-63
2022/07/15 12:08:55;;;;;;;3.30;1.20;;;18.60;99.90;;;;;;5053182;28;20051;-63
2022/07/15 12:11:24;;;;;;;5.07;1.13;;;18.50;99.90;;;;;;5071247;28;20049;-63
2022/07/15 12:14:03;;;;;;;5.00;1.10;;;18.50;99.90;;;;;;5070924;28;20048;-63
2022/07/15 12:16:36;;;;;;;4.63;1.30;;;18.50;99.90;;;;;;5051018;28;20095;-63
2022/07/15 12:19:30;;;;;;;4.60;1.05;;;18.40;99.90;;;;;;5054471;28;20401;-63
2022/07/15 12:21:58;;;;;;;3.08;1.25;;;18.50;99.90;;;;;;5051391;28;20045;-64
2022/07/15 12:24:39;;;;;;;4.50;1.23;;;18.30;99.90;;;;;;5047451;28;20370;-64
2022/07/15 12:27:07;;;;;;;3.80;1.35;;;18.40;99.90;;;;;;5048051;28;20544;-64
2022/07/15 12:29:34;;;;;;;3.33;1.08;;;18.40;99.90;;;;;;5048137;28;20059;-64
2022/07/15 12:32:07;;;;;;;4.32;1.35;;;18.40;99.90;;;;;;5060345;28;20040;-64
2022/07/15 12:34:48;;;;;;;4.93;1.50;;;18.50;99.90;;;;;;5055925;28;20477;-62
2022/07/15 12:37:41;;;;;;;3.05;1.33;;;18.60;99.90;;;;;;5050394;28;20090;-63
2022/07/15 12:40:09;;;;;;;4.30;1.50;;;18.70;99.90;;;;;;5052007;28;20281;-63
2022/07/15 12:42:40;;;;;;;4.07;1.40;;;18.70;99.90;;;;;;5070078;28;20127;-63
2022/07/15 12:45:13;;;;;;;3.55;1.17;;;18.70;99.90;;;;;;5064150;28;20519;-63
2022/07/15 12:48:01;;;;;;;4.05;1.40;;;18.80;99.90;;;;;;5048251;28;20053;-63
2022/07/15 12:50:28;;;;;;;7.03;1.42;;;18.90;99.90;;;;;;5047857;28;20045;-63
2022/07/15 12:52:55;;;;;;;4.97;1.77;;;19.00;99.90;;;;;;5048207;28;20124;-62
2022/07/15 12:55:28;;;;;;;4.90;2.05;;;19.20;99.90;;;;;;5049690;28;20541;-62
2022/07/15 12:58:08;;;;;;;4.88;1.70;;;19.10;99.90;;;;;;5052962;28;20044;-62
2022/07/15 13:00:35;;;;;;;4.20;1.38;;;19.10;99.90;;;;;;5060033;28;20401;-62
2022/07/15 13:03:17;;;;;;;3.00;1.27;;;19.10;99.90;;;;;;5067301;28;20059;-62
2022/07/15 13:05:45;;;;;;;6.10;1.70;;;19.20;99.90;;;;;;5047211;28;20069;-62
2022/07/15 13:08:13;;;;;;;4.18;1.20;;;19.30;99.90;;;;;;5063548;28;20036;-62
2022/07/15 13:10:40;;;;;;;3.22;1.10;;;19.70;99.90;;;;;;5067703;28;20036;-62
2022/07/15 13:13:07;;;;;;;6.07;1.48;;;19.30;99.90;;;;;;5049600;28;20044;-61
2022/07/15 13:15:33;;;;;;;3.00;0.98;;;19.20;99.90;;;;;;5064634;28;20041;-61
2022/07/15 13:17:58;;;;;;;6.55;4.43;;;19.30;99.90;;;;;;5046521;28;20106;-61
2022/07/15 13:20:24;;;;;;;8.63;4.10;;;19.00;99.90;;;;;;5048978;28;20045;-61
2022/07/15 13:22:51;;;;;;;14.10;10.85;;;19.30;99.90;;;;;;5030553;28;20041;-61
2022/07/15 13:25:17;;;;;;;6.82;2.75;;;;;;;;;;5051420;28;20387;-62
2022/07/15 13:27:44;;;;;;;6.05;2.50;;;19.80;99.90;;;;;;5065960;28;20541;-61
2022/07/15 13:30:11;;;;;;;5.80;2.85;;;20.00;99.90;;;;;;5052487;28;20084;-61
2022/07/15 13:32:36;;;;;;;6.40;2.88;;;20.20;99.90;;;;;;5062921;28;20114;-61
2022/07/15 13:35:02;;;;;;;10.57;5.60;;;20.50;99.90;;;;;;5068532;28;20516;-62
2022/07/15 13:37:28;;;;;;;4.55;1.50;;;20.70;99.90;;;;;;5054684;28;20447;-62
2022/07/15 13:39:54;;;;;;;5.15;1.83;;;20.70;99.90;;;;;;5050179;28;20102;-62
2022/07/15 13:42:20;;;;;;;4.13;1.17;;;;;;;;;;5054441;28;20397;-62
2022/07/15 13:44:48;;;;;;;5.72;1.50;;;;;;;;;;5069506;28;20401;-62
2022/07/15 13:47:15;;;;;;;4.82;1.52;;;21.70;99.90;;;;;;5058409;28;20033;-64
2022/07/15 13:52:25;;;;;;;6.32;2.55;;;21.80;99.90;;;;;;5072338;28;20048;-63
2022/07/15 13:54:52;;;;;;;3.60;1.25;;;;;;;;;;5061177;28;20508;-62
2022/07/15 13:57:18;;;;;;;4.22;1.38;;;;;;;;;;5053253;28;20048;-62